sensor_id;sensor_type;location;lat;lon;timestamp;pressure;altitude;pressure_sealevel;temperature;humidity
46015;BME280;36844;51.898;-0.874;2023-10-31T00:00:49;98637.22;;;18.94;
46015;BME280;36844;51.898;-0.874;2023-10-31T00:03:15;98640.97;;;18.96;
46015;BME280;36844;51.898;-0.874;2023-10-31T00:05:41;98636.59;;;18.90;
46015;BME280;36844;51.898;-0.874;2023-10-31T00:08:06;98627.16;;;18.85;
46015;BME280;36844;51.898;-0.874;2023-10-31T00:10:32;98623.25;;;18.77;
46015;BME280;36844;51.898;-0.874;2023-10-31T00:12:57;98641.72;;;18.88;
46015;BME280;36844;51.898;-0.874;2023-10-31T00:15:22;98637.63;;;18.83;
46015;BME280;36844;51.898;-0.874;2023-10-31T00:17:50;98642.28;;;18.83;
46015;BME280;36844;51.898;-0.874;2023-10-31T00:20:15;98650.09;;;18.81;
46015;BME280;36844;51.898;-0.874;2023-10-31T00:22:40;98658.31;;;18.86;
46015;BME280;36844;51.898;-0.874;2023-10-31T00:25:06;98635.19;;;18.67;
46015;BME280;36844;51.898;-0.874;2023-10-31T00:27:31;98655.00;;;18.82;
46015;BME280;36844;51.898;-0.874;2023-10-31T00:29:57;98641.03;;;18.74;
46015;BME280;36844;51.898;-0.874;2023-10-31T00:32:22;98664.31;;;18.81;
46015;BME280;36844;51.898;-0.874;2023-10-31T00:34:48;98654.72;;;18.80;
46015;BME280;36844;51.898;-0.874;2023-10-31T00:37:14;98646.44;;;18.65;
46015;BME280;36844;51.898;-0.874;2023-10-31T00:39:39;98652.09;;;18.67;
46015;BME280;36844;51.898;-0.874;2023-10-31T00:42:05;98661.72;;;18.68;
46015;BME280;36844;51.898;-0.874;2023-10-31T00:44:30;98663.38;;;18.66;
46015;BME280;36844;51.898;-0.874;2023-10-31T00:46:56;98650.91;;;18.59;
46015;BME280;36844;51.898;-0.874;2023-10-31T00:49:21;98670.56;;;18.69;
46015;BME280;36844;51.898;-0.874;2023-10-31T00:51:46;98641.75;;;18.57;
46015;BME280;36844;51.898;-0.874;2023-10-31T00:54:12;98658.41;;;18.64;
46015;BME280;36844;51.898;-0.874;2023-10-31T00:56:37;98659.44;;;18.67;
46015;BME280;36844;51.898;-0.874;2023-10-31T00:59:02;98654.81;;;18.58;
46015;BME280;36844;51.898;-0.874;2023-10-31T01:01:28;98638.16;;;18.51;
46015;BME280;36844;51.898;-0.874;2023-10-31T01:03:53;98648.94;;;18.60;
46015;BME280;36844;51.898;-0.874;2023-10-31T01:06:18;98632.00;;;18.50;
46015;BME280;36844;51.898;-0.874;2023-10-31T01:08:44;98644.16;;;18.55;
46015;BME280;36844;51.898;-0.874;2023-10-31T01:11:09;98640.09;;;18.50;
46015;BME280;36844;51.898;-0.874;2023-10-31T01:13:34;98658.38;;;18.55;
46015;BME280;36844;51.898;-0.874;2023-10-31T01:16:00;98640.22;;;18.47;
46015;BME280;36844;51.898;-0.874;2023-10-31T01:18:26;98648.16;;;18.50;
46015;BME280;36844;51.898;-0.874;2023-10-31T01:20:51;98645.59;;;18.47;
46015;BME280;36844;51.898;-0.874;2023-10-31T01:23:16;98662.69;;;18.53;
46015;BME280;36844;51.898;-0.874;2023-10-31T01:25:42;98658.31;;;18.46;
46015;BME280;36844;51.898;-0.874;2023-10-31T01:28:07;98652.31;;;18.42;
46015;BME280;36844;51.898;-0.874;2023-10-31T01:30:32;98667.47;;;18.49;
46015;BME280;36844;51.898;-0.874;2023-10-31T01:32:58;98666.84;;;18.45;
46015;BME280;36844;51.898;-0.874;2023-10-31T01:35:23;98639.25;;;18.32;
46015;BME280;36844;51.898;-0.874;2023-10-31T01:37:49;98656.53;;;18.43;
46015;BME280;36844;51.898;-0.874;2023-10-31T01:40:14;98661.47;;;18.45;
46015;BME280;36844;51.898;-0.874;2023-10-31T01:42:40;98632.16;;;18.25;
46015;BME280;36844;51.898;-0.874;2023-10-31T01:45:05;98639.19;;;18.23;
46015;BME280;36844;51.898;-0.874;2023-10-31T01:47:32;98651.38;;;18.36;
46015;BME280;36844;51.898;-0.874;2023-10-31T01:49:57;98626.91;;;18.22;
46015;BME280;36844;51.898;-0.874;2023-10-31T01:52:23;98645.84;;;18.31;
46015;BME280;36844;51.898;-0.874;2023-10-31T01:54:49;98644.94;;;18.34;
46015;BME280;36844;51.898;-0.874;2023-10-31T01:57:14;98648.06;;;18.32;
46015;BME280;36844;51.898;-0.874;2023-10-31T01:59:41;98644.31;;;18.30;
46015;BME280;36844;51.898;-0.874;2023-10-31T02:02:06;98632.16;;;18.25;
46015;BME280;36844;51.898;-0.874;2023-10-31T02:04:33;98640.72;;;18.33;
46015;BME280;36844;51.898;-0.874;2023-10-31T02:06:58;98646.72;;;18.28;
46015;BME280;36844;51.898;-0.874;2023-10-31T02:09:23;98638.56;;;18.19;
46015;BME280;36844;51.898;-0.874;2023-10-31T02:11:51;98647.56;;;18.25;
46015;BME280;36844;51.898;-0.874;2023-10-31T02:14:18;98660.81;;;18.32;
46015;BME280;36844;51.898;-0.874;2023-10-31T02:16:43;98655.38;;;18.23;
46015;BME280;36844;51.898;-0.874;2023-10-31T02:19:10;98639.75;;;18.18;
46015;BME280;36844;51.898;-0.874;2023-10-31T02:21:39;98660.50;;;18.30;
46015;BME280;36844;51.898;-0.874;2023-10-31T02:24:04;98638.72;;;18.15;
46015;BME280;36844;51.898;-0.874;2023-10-31T02:26:31;98656.75;;;18.27;
46015;BME280;36844;51.898;-0.874;2023-10-31T02:28:57;98632.28;;;18.13;
46015;BME280;36844;51.898;-0.874;2023-10-31T02:31:22;98636.00;;;18.15;
46015;BME280;36844;51.898;-0.874;2023-10-31T02:33:47;98642.78;;;18.20;
46015;BME280;36844;51.898;-0.874;2023-10-31T02:36:13;98641.81;;;18.14;
46015;BME280;36844;51.898;-0.874;2023-10-31T02:38:39;98637.81;;;18.18;
46015;BME280;36844;51.898;-0.874;2023-10-31T02:41:04;98649.22;;;18.22;
46015;BME280;36844;51.898;-0.874;2023-10-31T02:43:30;98658.19;;;18.19;
46015;BME280;36844;51.898;-0.874;2023-10-31T02:45:55;98640.00;;;18.11;
46015;BME280;36844;51.898;-0.874;2023-10-31T02:48:21;98629.63;;;18.00;
46015;BME280;36844;51.898;-0.874;2023-10-31T02:50:46;98626.94;;;18.00;
46015;BME280;36844;51.898;-0.874;2023-10-31T02:53:11;98657.13;;;18.17;
46015;BME280;36844;51.898;-0.874;2023-10-31T02:55:37;98638.75;;;18.03;
46015;BME280;36844;51.898;-0.874;2023-10-31T02:58:02;98612.34;;;17.89;
46015;BME280;36844;51.898;-0.874;2023-10-31T03:00:27;98638.75;;;18.03;
46015;BME280;36844;51.898;-0.874;2023-10-31T03:02:53;98640.28;;;18.04;
46015;BME280;36844;51.898;-0.874;2023-10-31T03:05:18;98619.81;;;17.85;
46015;BME280;36844;51.898;-0.874;2023-10-31T03:07:43;98634.84;;;17.95;
46015;BME280;36844;51.898;-0.874;2023-10-31T03:10:10;98648.03;;;18.02;
46015;BME280;36844;51.898;-0.874;2023-10-31T03:12:35;98635.59;;;17.95;
46015;BME280;36844;51.898;-0.874;2023-10-31T03:15:02;98646.56;;;18.01;
46015;BME280;36844;51.898;-0.874;2023-10-31T03:17:29;98630.44;;;17.88;
46015;BME280;36844;51.898;-0.874;2023-10-31T03:19:54;98655.53;;;18.07;
46015;BME280;36844;51.898;-0.874;2023-10-31T03:22:19;98657.50;;;18.06;
46015;BME280;36844;51.898;-0.874;2023-10-31T03:24:45;98646.78;;;17.94;
46015;BME280;36844;51.898;-0.874;2023-10-31T03:27:10;98639.47;;;17.94;
46015;BME280;36844;51.898;-0.874;2023-10-31T03:29:35;98629.41;;;17.86;
46015;BME280;36844;51.898;-0.874;2023-10-31T03:32:01;98642.91;;;17.95;
46015;BME280;36844;51.898;-0.874;2023-10-31T03:34:26;98639.03;;;17.96;
46015;BME280;36844;51.898;-0.874;2023-10-31T03:36:51;98645.16;;;17.96;
46015;BME280;36844;51.898;-0.874;2023-10-31T03:39:17;98628.31;;;17.83;
46015;BME280;36844;51.898;-0.874;2023-10-31T03:41:42;98632.41;;;17.88;
46015;BME280;36844;51.898;-0.874;2023-10-31T03:44:07;98662.09;;;17.97;
46015;BME280;36844;51.898;-0.874;2023-10-31T03:46:33;98625.13;;;17.75;
46015;BME280;36844;51.898;-0.874;2023-10-31T03:48:58;98645.56;;;17.86;
46015;BME280;36844;51.898;-0.874;2023-10-31T03:51:23;98665.94;;;17.96;
46015;BME280;36844;51.898;-0.874;2023-10-31T03:53:49;98658.44;;;17.91;
46015;BME280;36844;51.898;-0.874;2023-10-31T03:56:14;98644.47;;;17.83;
46015;BME280;36844;51.898;-0.874;2023-10-31T03:58:42;98639.22;;;17.80;
46015;BME280;36844;51.898;-0.874;2023-10-31T04:01:07;98647.03;;;17.87;
46015;BME280;36844;51.898;-0.874;2023-10-31T04:03:32;98650.63;;;17.84;
46015;BME280;36844;51.898;-0.874;2023-10-31T04:05:58;98646.00;;;17.84;
46015;BME280;36844;51.898;-0.874;2023-10-31T04:08:23;98633.78;;;17.70;
46015;BME280;36844;51.898;-0.874;2023-10-31T04:10:49;98654.50;;;17.83;
46015;BME280;36844;51.898;-0.874;2023-10-31T04:13:14;98668.91;;;17.89;
46015;BME280;36844;51.898;-0.874;2023-10-31T04:15:39;98660.00;;;17.79;
46015;BME280;36844;51.898;-0.874;2023-10-31T04:18:04;98667.09;;;17.86;
46015;BME280;36844;51.898;-0.874;2023-10-31T04:20:30;98661.66;;;17.77;
46015;BME280;36844;51.898;-0.874;2023-10-31T04:22:55;98675.91;;;17.86;
46015;BME280;36844;51.898;-0.874;2023-10-31T04:25:21;98671.28;;;17.87;
46015;BME280;36844;51.898;-0.874;2023-10-31T04:27:46;98669.59;;;17.80;
46015;BME280;36844;51.898;-0.874;2023-10-31T04:30:12;98656.38;;;17.73;
46015;BME280;36844;51.898;-0.874;2023-10-31T04:32:37;98665.50;;;17.75;
46015;BME280;36844;51.898;-0.874;2023-10-31T04:35:02;98668.66;;;17.74;
46015;BME280;36844;51.898;-0.874;2023-10-31T04:37:28;98655.00;;;17.68;
46015;BME280;36844;51.898;-0.874;2023-10-31T04:39:53;98695.94;;;17.85;
46015;BME280;36844;51.898;-0.874;2023-10-31T04:42:19;98680.78;;;17.78;
46015;BME280;36844;51.898;-0.874;2023-10-31T04:44:45;98679.28;;;17.77;
46015;BME280;36844;51.898;-0.874;2023-10-31T04:47:11;98671.47;;;17.70;
46015;BME280;36844;51.898;-0.874;2023-10-31T04:49:36;98669.09;;;17.72;
46015;BME280;36844;51.898;-0.874;2023-10-31T04:52:01;98696.53;;;17.80;
46015;BME280;36844;51.898;-0.874;2023-10-31T04:54:27;98666.88;;;17.58;
46015;BME280;36844;51.898;-0.874;2023-10-31T04:56:52;98700.94;;;17.74;
46015;BME280;36844;51.898;-0.874;2023-10-31T04:59:17;98705.25;;;17.71;
46015;BME280;36844;51.898;-0.874;2023-10-31T05:01:48;98686.97;;;17.66;
46015;BME280;36844;51.898;-0.874;2023-10-31T05:04:15;98691.41;;;17.60;
46015;BME280;36844;51.898;-0.874;2023-10-31T05:06:40;98690.53;;;17.63;
46015;BME280;36844;51.898;-0.874;2023-10-31T05:09:06;98705.25;;;17.71;
46015;BME280;36844;51.898;-0.874;2023-10-31T05:11:31;98704.09;;;17.72;
46015;BME280;36844;51.898;-0.874;2023-10-31T05:13:56;98700.31;;;17.70;
46015;BME280;36844;51.898;-0.874;2023-10-31T05:16:21;98682.91;;;17.62;
46015;BME280;36844;51.898;-0.874;2023-10-31T05:18:47;98691.16;;;17.67;
46015;BME280;36844;51.898;-0.874;2023-10-31T05:21:12;98698.06;;;17.68;
46015;BME280;36844;51.898;-0.874;2023-10-31T05:23:38;98701.94;;;17.67;
46015;BME280;36844;51.898;-0.874;2023-10-31T05:26:05;98700.44;;;17.66;
46015;BME280;36844;51.898;-0.874;2023-10-31T05:28:30;98708.06;;;17.68;
46015;BME280;36844;51.898;-0.874;2023-10-31T05:30:56;98696.78;;;17.60;
46015;BME280;36844;51.898;-0.874;2023-10-31T05:33:21;98693.22;;;17.63;
46015;BME280;36844;51.898;-0.874;2023-10-31T05:35:48;98693.97;;;17.64;
46015;BME280;36844;51.898;-0.874;2023-10-31T05:38:13;98692.44;;;17.63;
46015;BME280;36844;51.898;-0.874;2023-10-31T05:40:39;98670.13;;;17.53;
46015;BME280;36844;51.898;-0.874;2023-10-31T05:43:04;98692.44;;;17.63;
46015;BME280;36844;51.898;-0.874;2023-10-31T05:45:30;98681.16;;;17.55;
46015;BME280;36844;51.898;-0.874;2023-10-31T05:47:55;98675.75;;;17.46;
46015;BME280;36844;51.898;-0.874;2023-10-31T05:50:21;98685.91;;;17.51;
46015;BME280;36844;51.898;-0.874;2023-10-31T05:52:46;98690.34;;;17.58;
46015;BME280;36844;51.898;-0.874;2023-10-31T05:55:12;98710.44;;;17.66;
46015;BME280;36844;51.898;-0.874;2023-10-31T05:57:38;98698.44;;;17.58;
46015;BME280;36844;51.898;-0.874;2023-10-31T06:00:03;98687.78;;;17.54;
46015;BME280;36844;51.898;-0.874;2023-10-31T06:02:29;98698.72;;;17.60;
46015;BME280;36844;51.898;-0.874;2023-10-31T06:04:55;98700.78;;;17.56;
46015;BME280;36844;51.898;-0.874;2023-10-31T06:07:20;98709.34;;;17.63;
46015;BME280;36844;51.898;-0.874;2023-10-31T06:09:46;98692.81;;;17.52;
46015;BME280;36844;51.898;-0.874;2023-10-31T06:12:11;98713.97;;;17.63;
46015;BME280;36844;51.898;-0.874;2023-10-31T06:14:37;98692.06;;;17.52;
46015;BME280;36844;51.898;-0.874;2023-10-31T06:17:02;98691.28;;;17.51;
46015;BME280;36844;51.898;-0.874;2023-10-31T06:19:27;98689.72;;;17.54;
46015;BME280;36844;51.898;-0.874;2023-10-31T06:21:53;98687.16;;;17.50;
46015;BME280;36844;51.898;-0.874;2023-10-31T06:24:18;98689.72;;;17.54;
46015;BME280;36844;51.898;-0.874;2023-10-31T06:26:43;98709.94;;;17.58;
46015;BME280;36844;51.898;-0.874;2023-10-31T06:29:09;98696.38;;;17.49;
46015;BME280;36844;51.898;-0.874;2023-10-31T06:31:34;98701.66;;;17.53;
46015;BME280;36844;51.898;-0.874;2023-10-31T06:33:59;98696.38;;;17.49;
46015;BME280;36844;51.898;-0.874;2023-10-31T06:36:25;98694.22;;;17.44;
46015;BME280;36844;51.898;-0.874;2023-10-31T06:38:50;98704.22;;;17.44;
46015;BME280;36844;51.898;-0.874;2023-10-31T06:41:15;98726.91;;;17.55;
46015;BME280;36844;51.898;-0.874;2023-10-31T06:43:41;98739.66;;;17.55;
46015;BME280;36844;51.898;-0.874;2023-10-31T06:46:06;98725.06;;;17.43;
46015;BME280;36844;51.898;-0.874;2023-10-31T06:48:32;98725.69;;;17.47;
46015;BME280;36844;51.898;-0.874;2023-10-31T06:50:57;98730.72;;;17.45;
46015;BME280;36844;51.898;-0.874;2023-10-31T06:53:23;98726.63;;;17.41;
46015;BME280;36844;51.898;-0.874;2023-10-31T06:55:48;98712.34;;;17.31;
46015;BME280;36844;51.898;-0.874;2023-10-31T06:58:13;98740.59;;;17.48;
46015;BME280;36844;51.898;-0.874;2023-10-31T07:00:39;98746.34;;;17.50;
46015;BME280;36844;51.898;-0.874;2023-10-31T07:03:04;98756.22;;;17.53;
46015;BME280;36844;51.898;-0.874;2023-10-31T07:05:34;98754.59;;;17.56;
46015;BME280;36844;51.898;-0.874;2023-10-31T07:08:00;98764.50;;;17.59;
46015;BME280;36844;51.898;-0.874;2023-10-31T07:10:25;98765.72;;;17.58;
46015;BME280;36844;51.898;-0.874;2023-10-31T07:12:50;98762.25;;;17.57;
46015;BME280;36844;51.898;-0.874;2023-10-31T07:15:16;98751.38;;;17.48;
46015;BME280;36844;51.898;-0.874;2023-10-31T07:17:41;98763.03;;;17.58;
46015;BME280;36844;51.898;-0.874;2023-10-31T07:20:07;98775.47;;;17.64;
46015;BME280;36844;51.898;-0.874;2023-10-31T07:22:32;98762.03;;;17.52;
46015;BME280;36844;51.898;-0.874;2023-10-31T07:24:59;98780.75;;;17.68;
46015;BME280;36844;51.898;-0.874;2023-10-31T07:27:27;98786.88;;;17.68;
46015;BME280;36844;51.898;-0.874;2023-10-31T07:29:52;98809.16;;;17.82;
46015;BME280;36844;51.898;-0.874;2023-10-31T07:32:18;98807.22;;;17.82;
46015;BME280;36844;51.898;-0.874;2023-10-31T07:34:43;98815.19;;;17.86;
46015;BME280;36844;51.898;-0.874;2023-10-31T07:37:09;98801.63;;;17.77;
46015;BME280;36844;51.898;-0.874;2023-10-31T07:39:34;98791.00;;;17.73;
46015;BME280;36844;51.898;-0.874;2023-10-31T07:41:59;98785.59;;;17.60;
46015;BME280;36844;51.898;-0.874;2023-10-31T07:44:25;98800.22;;;17.72;
46015;BME280;36844;51.898;-0.874;2023-10-31T07:46:50;98790.63;;;17.71;
46015;BME280;36844;51.898;-0.874;2023-10-31T07:49:16;98787.00;;;17.65;
46015;BME280;36844;51.898;-0.874;2023-10-31T07:51:41;98818.19;;;17.88;
46015;BME280;36844;51.898;-0.874;2023-10-31T07:54:07;98792.59;;;17.70;
46015;BME280;36844;51.898;-0.874;2023-10-31T07:56:34;98831.75;;;17.97;
46015;BME280;36844;51.898;-0.874;2023-10-31T07:59:01;98828.75;;;17.95;
46015;BME280;36844;51.898;-0.874;2023-10-31T08:01:27;98826.38;;;17.97;
46015;BME280;36844;51.898;-0.874;2023-10-31T08:03:52;98813.13;;;17.90;
46015;BME280;36844;51.898;-0.874;2023-10-31T08:06:17;98827.53;;;17.96;
46015;BME280;36844;51.898;-0.874;2023-10-31T08:08:43;98817.19;;;17.94;
46015;BME280;36844;51.898;-0.874;2023-10-31T08:11:09;98760.84;;;17.53;
46015;BME280;36844;51.898;-0.874;2023-10-31T08:13:36;98807.97;;;17.83;
46015;BME280;36844;51.898;-0.874;2023-10-31T08:16:03;98828.63;;;17.98;
46015;BME280;36844;51.898;-0.874;2023-10-31T08:18:29;98823.78;;;17.93;
46015;BME280;36844;51.898;-0.874;2023-10-31T08:20:54;98831.75;;;17.97;
46015;BME280;36844;51.898;-0.874;2023-10-31T08:23:19;98801.84;;;17.82;
46015;BME280;36844;51.898;-0.874;2023-10-31T08:25:45;98822.25;;;17.92;
46015;BME280;36844;51.898;-0.874;2023-10-31T08:28:11;98819.91;;;17.94;
46015;BME280;36844;51.898;-0.874;2023-10-31T08:30:37;98819.91;;;17.94;
46015;BME280;36844;51.898;-0.874;2023-10-31T08:33:03;98820.34;;;17.93;
46015;BME280;36844;51.898;-0.874;2023-10-31T08:35:28;98810.97;;;17.85;
46015;BME280;36844;51.898;-0.874;2023-10-31T08:37:55;98835.94;;;17.98;
46015;BME280;36844;51.898;-0.874;2023-10-31T08:40:20;98834.75;;;17.99;
46015;BME280;36844;51.898;-0.874;2023-10-31T08:42:45;98821.53;;;17.92;
46015;BME280;36844;51.898;-0.874;2023-10-31T08:45:11;98826.38;;;17.97;
46015;BME280;36844;51.898;-0.874;2023-10-31T08:47:36;98827.53;;;17.96;
46015;BME280;36844;51.898;-0.874;2023-10-31T08:50:02;98830.56;;;17.98;
46015;BME280;36844;51.898;-0.874;2023-10-31T08:52:27;98834.75;;;17.99;
46015;BME280;36844;51.898;-0.874;2023-10-31T08:54:53;98840.47;;;18.01;
46015;BME280;36844;51.898;-0.874;2023-10-31T08:57:18;98841.66;;;18.00;
46015;BME280;36844;51.898;-0.874;2023-10-31T08:59:43;98829.19;;;17.93;
46015;BME280;36844;51.898;-0.874;2023-10-31T09:02:09;98825.59;;;17.96;
46015;BME280;36844;51.898;-0.874;2023-10-31T09:04:34;98828.19;;;18.00;
46015;BME280;36844;51.898;-0.874;2023-10-31T09:07:00;98836.78;;;18.07;
46015;BME280;36844;51.898;-0.874;2023-10-31T09:09:25;98830.00;;;18.03;
46015;BME280;36844;51.898;-0.874;2023-10-31T09:11:51;98803.97;;;17.87;
46015;BME280;36844;51.898;-0.874;2023-10-31T09:14:16;98834.75;;;17.99;
46015;BME280;36844;51.898;-0.874;2023-10-31T09:16:41;98818.53;;;17.90;
46015;BME280;36844;51.898;-0.874;2023-10-31T09:19:07;98822.59;;;17.94;
46015;BME280;36844;51.898;-0.874;2023-10-31T09:21:32;98833.44;;;18.03;
46015;BME280;36844;51.898;-0.874;2023-10-31T09:23:58;98836.91;;;18.04;
46015;BME280;36844;51.898;-0.874;2023-10-31T09:26:23;98848.63;;;18.10;
46015;BME280;36844;51.898;-0.874;2023-10-31T09:28:48;98839.28;;;18.02;
46015;BME280;36844;51.898;-0.874;2023-10-31T09:31:17;98839.28;;;18.02;
46015;BME280;36844;51.898;-0.874;2023-10-31T09:33:43;98818.84;;;17.92;
46015;BME280;36844;51.898;-0.874;2023-10-31T09:36:09;98827.84;;;17.98;
46015;BME280;36844;51.898;-0.874;2023-10-31T09:38:34;98833.88;;;18.02;
46015;BME280;36844;51.898;-0.874;2023-10-31T09:40:59;98837.53;;;18.08;
46015;BME280;36844;51.898;-0.874;2023-10-31T09:43:25;98832.28;;;18.04;
46015;BME280;36844;51.898;-0.874;2023-10-31T09:45:51;98835.28;;;18.06;
46015;BME280;36844;51.898;-0.874;2023-10-31T09:48:18;98846.78;;;18.07;
46015;BME280;36844;51.898;-0.874;2023-10-31T09:50:45;98833.88;;;18.02;
46015;BME280;36844;51.898;-0.874;2023-10-31T09:53:11;98833.88;;;18.02;
46015;BME280;36844;51.898;-0.874;2023-10-31T09:55:36;98848.97;;;17.99;
46015;BME280;36844;51.898;-0.874;2023-10-31T09:58:02;98867.38;;;18.13;
46015;BME280;36844;51.898;-0.874;2023-10-31T10:00:27;98866.00;;;18.09;
46015;BME280;36844;51.898;-0.874;2023-10-31T10:02:54;98869.09;;;18.07;
46015;BME280;36844;51.898;-0.874;2023-10-31T10:05:20;98871.78;;;18.07;
46015;BME280;36844;51.898;-0.874;2023-10-31T10:07:48;98862.66;;;18.05;
46015;BME280;36844;51.898;-0.874;2023-10-31T10:10:13;98861.13;;;18.04;
46015;BME280;36844;51.898;-0.874;2023-10-31T10:12:41;98869.53;;;18.06;
46015;BME280;36844;51.898;-0.874;2023-10-31T10:15:07;98860.50;;;18.00;
46015;BME280;36844;51.898;-0.874;2023-10-31T10:17:33;98882.16;;;18.09;
46015;BME280;36844;51.898;-0.874;2023-10-31T10:20:09;98871.03;;;18.07;
46015;BME280;36844;51.898;-0.874;2023-10-31T10:22:42;98885.03;;;18.14;
46015;BME280;36844;51.898;-0.874;2023-10-31T10:25:16;98883.09;;;18.15;
46015;BME280;36844;51.898;-0.874;2023-10-31T10:27:42;98872.88;;;18.10;
46015;BME280;36844;51.898;-0.874;2023-10-31T10:30:09;98869.00;;;18.11;
46015;BME280;36844;51.898;-0.874;2023-10-31T10:32:34;98869.88;;;18.08;
46015;BME280;36844;51.898;-0.874;2023-10-31T10:35:00;98854.78;;;17.98;
46015;BME280;36844;51.898;-0.874;2023-10-31T10:37:26;98883.09;;;18.15;
46015;BME280;36844;51.898;-0.874;2023-10-31T10:39:53;98859.44;;;17.97;
46015;BME280;36844;51.898;-0.874;2023-10-31T10:44:56;98884.28;;;18.14;
46015;BME280;36844;51.898;-0.874;2023-10-31T10:47:24;98878.06;;;18.04;
46015;BME280;36844;51.898;-0.874;2023-10-31T10:49:54;98882.47;;;18.11;
46015;BME280;36844;51.898;-0.874;2023-10-31T10:52:28;98879.13;;;18.07;
46015;BME280;36844;51.898;-0.874;2023-10-31T10:55:00;98896.56;;;18.15;
46015;BME280;36844;51.898;-0.874;2023-10-31T10:57:32;98900.03;;;18.15;
46015;BME280;36844;51.898;-0.874;2023-10-31T11:00:04;98878.06;;;18.04;
46015;BME280;36844;51.898;-0.874;2023-10-31T11:02:30;98891.72;;;18.10;
46015;BME280;36844;51.898;-0.874;2023-10-31T11:04:56;98915.88;;;18.13;
46015;BME280;36844;51.898;-0.874;2023-10-31T11:07:22;98880.34;;;17.93;
46015;BME280;36844;51.898;-0.874;2023-10-31T11:09:50;98897.31;;;18.03;
46015;BME280;36844;51.898;-0.874;2023-10-31T11:12:15;98902.72;;;18.03;
46015;BME280;36844;51.898;-0.874;2023-10-31T11:14:42;98919.75;;;18.12;
46015;BME280;36844;51.898;-0.874;2023-10-31T11:17:24;98911.44;;;18.07;
46015;BME280;36844;51.898;-0.874;2023-10-31T11:19:51;98905.94;;;18.10;
46015;BME280;36844;51.898;-0.874;2023-10-31T11:22:18;98901.53;;;18.04;
46015;BME280;36844;51.898;-0.874;2023-10-31T11:24:44;98904.25;;;18.04;
46015;BME280;36844;51.898;-0.874;2023-10-31T11:27:09;98893.25;;;17.98;
46015;BME280;36844;51.898;-0.874;2023-10-31T11:29:36;98899.50;;;18.08;
46015;BME280;36844;51.898;-0.874;2023-10-31T11:32:01;98887.22;;;17.94;
46015;BME280;36844;51.898;-0.874;2023-10-31T11:34:28;98891.00;;;17.97;
46015;BME280;36844;51.898;-0.874;2023-10-31T11:42:43;98905.41;;;18.03;
46015;BME280;36844;51.898;-0.874;2023-10-31T11:45:09;98899.72;;;18.01;
46015;BME280;36844;51.898;-0.874;2023-10-31T11:47:50;98867.09;;;17.73;
46015;BME280;36844;51.898;-0.874;2023-10-31T11:50:17;98905.41;;;18.03;
46015;BME280;36844;51.898;-0.874;2023-10-31T11:52:43;98875.28;;;17.83;
46015;BME280;36844;51.898;-0.874;2023-10-31T11:55:12;98893.59;;;17.88;
46015;BME280;36844;51.898;-0.874;2023-10-31T11:57:40;98878.50;;;17.77;
46015;BME280;36844;51.898;-0.874;2023-10-31T12:00:06;98903.59;;;18.00;
46015;BME280;36844;51.898;-0.874;2023-10-31T12:02:33;98877.56;;;17.84;
46015;BME280;36844;51.898;-0.874;2023-10-31T12:05:08;98889.59;;;17.92;
46015;BME280;36844;51.898;-0.874;2023-10-31T12:07:46;98897.16;;;17.97;
46015;BME280;36844;51.898;-0.874;2023-10-31T12:10:13;98891.97;;;17.90;
46015;BME280;36844;51.898;-0.874;2023-10-31T12:12:38;98888.75;;;17.83;
46015;BME280;36844;51.898;-0.874;2023-10-31T12:15:07;98897.22;;;17.94;
46015;BME280;36844;51.898;-0.874;2023-10-31T12:17:34;98890.91;;;17.88;
46015;BME280;36844;51.898;-0.874;2023-10-31T12:20:06;98903.16;;;17.89;
46015;BME280;36844;51.898;-0.874;2023-10-31T12:22:32;98906.19;;;17.91;
46015;BME280;36844;51.898;-0.874;2023-10-31T12:25:05;98884.00;;;17.74;
46015;BME280;36844;51.898;-0.874;2023-10-31T12:27:48;98907.38;;;17.90;
46015;BME280;36844;51.898;-0.874;2023-10-31T12:30:20;98905.88;;;17.89;
46015;BME280;36844;51.898;-0.874;2023-10-31T12:32:53;98906.41;;;17.84;
46015;BME280;36844;51.898;-0.874;2023-10-31T12:35:21;98915.78;;;17.92;
46015;BME280;36844;51.898;-0.874;2023-10-31T12:37:47;98930.19;;;17.98;
46015;BME280;36844;51.898;-0.874;2023-10-31T12:40:16;98911.91;;;17.93;
46015;BME280;36844;51.898;-0.874;2023-10-31T12:42:44;98924.38;;;17.99;
46015;BME280;36844;51.898;-0.874;2023-10-31T12:45:10;98910.41;;;17.92;
46015;BME280;36844;51.898;-0.874;2023-10-31T12:47:36;98887.69;;;17.80;
46015;BME280;36844;51.898;-0.874;2023-10-31T12:50:20;98903.81;;;17.93;
46015;BME280;36844;51.898;-0.874;2023-10-31T12:55:13;98914.03;;;17.98;
46015;BME280;36844;51.898;-0.874;2023-10-31T12:57:39;98904.34;;;18.00;
46015;BME280;36844;51.898;-0.874;2023-10-31T13:00:05;98909.41;;;17.98;
46015;BME280;36844;51.898;-0.874;2023-10-31T13:02:34;98918.16;;;18.02;
46015;BME280;36844;51.898;-0.874;2023-10-31T13:05:13;98927.31;;;18.05;
46015;BME280;36844;51.898;-0.874;2023-10-31T13:07:40;98894.13;;;17.83;
46015;BME280;36844;51.898;-0.874;2023-10-31T13:10:07;98930.00;;;18.05;
46015;BME280;36844;51.898;-0.874;2023-10-31T13:12:34;98934.50;;;18.08;
46015;BME280;36844;51.898;-0.874;2023-10-31T13:15:00;98923.22;;;18.00;
46015;BME280;36844;51.898;-0.874;2023-10-31T13:17:26;98919.63;;;18.03;
46015;BME280;36844;51.898;-0.874;2023-10-31T13:19:52;98929.88;;;18.08;
46015;BME280;36844;51.898;-0.874;2023-10-31T13:22:17;98922.22;;;18.07;
46015;BME280;36844;51.898;-0.874;2023-10-31T13:24:43;98920.16;;;18.11;
46015;BME280;36844;51.898;-0.874;2023-10-31T13:27:08;98928.91;;;18.15;
46015;BME280;36844;51.898;-0.874;2023-10-31T13:29:36;98919.00;;;18.12;
46015;BME280;36844;51.898;-0.874;2023-10-31T13:32:02;98923.81;;;18.17;
46015;BME280;36844;51.898;-0.874;2023-10-31T13:34:28;98913.50;;;18.15;
46015;BME280;36844;51.898;-0.874;2023-10-31T13:36:56;98898.84;;;18.04;
46015;BME280;36844;51.898;-0.874;2023-10-31T13:39:23;98906.47;;;18.18;
46015;BME280;36844;51.898;-0.874;2023-10-31T13:41:48;98903.78;;;18.18;
46015;BME280;36844;51.898;-0.874;2023-10-31T13:44:13;98903.47;;;18.16;
46015;BME280;36844;51.898;-0.874;2023-10-31T13:46:39;98919.06;;;18.21;
46015;BME280;36844;51.898;-0.874;2023-10-31T13:49:04;98897.44;;;18.12;